PTLDR LFKC-LFKJ
Flight info
| Callsign | PTLDR |
|---|---|
| Flight time | 0h 53m |
| Altitude | 8000 |
| Route | AJO |
| Aircraft | DA42/L-SDFGRY/C |
Departure
| Time | 2026-05-03 20:40 |
|---|---|
| Airport | Calvi Sainte Catherine Airport (LFKC) |
Arrival
| Time | 2026-05-03 21:33 |
|---|---|
| Airport | Ajaccio Napoléon Bonaparte airport (LFKJ) |
| Time | Latitude | Longitude | Altitude | Speed | Heading |
|---|---|---|---|---|---|
| 2026-05-03 20:15 | 42.52331 | 8.79161 | 193 ft | 0 kts | 180° |
| 2026-05-03 20:34 | 42.52311 | 8.79163 | 200 ft | 3 kts | 146° |
| 2026-05-03 20:35 | 42.52284 | 8.79196 | 198 ft | 4 kts | 181° |
| 2026-05-03 20:35 | 42.52275 | 8.79196 | 199 ft | 0 kts | 179° |
| 2026-05-03 20:37 | 42.52269 | 8.79196 | 200 ft | 5 kts | 177° |
| 2026-05-03 20:37 | 42.52248 | 8.79201 | 202 ft | 0 kts | 128° |
| 2026-05-03 20:38 | 42.52242 | 8.79234 | 202 ft | 6 kts | 82° |
| 2026-05-03 20:38 | 42.52258 | 8.79296 | 203 ft | 10 kts | 18° |
| 2026-05-03 20:38 | 42.52415 | 8.79298 | 189 ft | 47 kts | 0° |
| 2026-05-03 20:39 | 42.52914 | 8.79297 | 181 ft | 88 kts | 359° |
| 2026-05-03 20:39 | 42.53579 | 8.79274 | 313 ft | 104 kts | 356° |
| 2026-05-03 20:39 | 42.54293 | 8.79209 | 519 ft | 103 kts | 1° |
| 2026-05-03 20:39 | 42.55000 | 8.79241 | 732 ft | 102 kts | 2° |
| 2026-05-03 20:40 | 42.55710 | 8.79264 | 930 ft | 102 kts | 1° |
| 2026-05-03 20:40 | 42.56409 | 8.79277 | 1110 ft | 102 kts | 1° |
| 2026-05-03 20:40 | 42.57108 | 8.79130 | 1268 ft | 104 kts | 335° |
| 2026-05-03 20:40 | 42.57639 | 8.78471 | 1431 ft | 105 kts | 311° |
| 2026-05-03 20:41 | 42.58102 | 8.77698 | 1582 ft | 106 kts | 311° |
| 2026-05-03 20:41 | 42.58566 | 8.76916 | 1733 ft | 107 kts | 311° |
| 2026-05-03 20:41 | 42.59037 | 8.76122 | 1881 ft | 108 kts | 311° |
| 2026-05-03 20:41 | 42.59510 | 8.75324 | 2050 ft | 109 kts | 311° |
| 2026-05-03 20:42 | 42.59985 | 8.74522 | 2210 ft | 109 kts | 311° |
| 2026-05-03 20:42 | 42.60463 | 8.73717 | 2368 ft | 110 kts | 311° |
| 2026-05-03 20:42 | 42.60943 | 8.72907 | 2528 ft | 110 kts | 311° |
| 2026-05-03 20:42 | 42.61426 | 8.72092 | 2685 ft | 111 kts | 311° |
| 2026-05-03 20:43 | 42.61912 | 8.71272 | 2845 ft | 112 kts | 311° |
| 2026-05-03 20:43 | 42.62400 | 8.70448 | 3003 ft | 112 kts | 311° |
| 2026-05-03 20:43 | 42.62892 | 8.69619 | 3161 ft | 113 kts | 311° |
| 2026-05-03 20:43 | 42.63384 | 8.68788 | 3325 ft | 113 kts | 311° |
| 2026-05-03 20:44 | 42.63880 | 8.67949 | 3504 ft | 115 kts | 311° |
| 2026-05-03 20:44 | 42.64375 | 8.67112 | 3760 ft | 113 kts | 311° |
| 2026-05-03 20:44 | 42.64870 | 8.66276 | 3992 ft | 114 kts | 311° |
| 2026-05-03 20:44 | 42.65367 | 8.65436 | 4227 ft | 114 kts | 311° |
| 2026-05-03 20:45 | 42.65809 | 8.64550 | 4459 ft | 115 kts | 307° |
| 2026-05-03 20:45 | 42.66266 | 8.63653 | 4691 ft | 115 kts | 307° |
| 2026-05-03 20:45 | 42.66722 | 8.62751 | 4930 ft | 116 kts | 307° |
| 2026-05-03 20:45 | 42.67177 | 8.61846 | 5171 ft | 116 kts | 306° |
| 2026-05-03 20:46 | 42.67633 | 8.60937 | 5409 ft | 117 kts | 306° |
| 2026-05-03 20:46 | 42.68090 | 8.60024 | 5645 ft | 117 kts | 306° |
| 2026-05-03 20:46 | 42.68549 | 8.59106 | 5883 ft | 118 kts | 306° |
| 2026-05-03 20:46 | 42.69010 | 8.58184 | 6119 ft | 118 kts | 306° |
| 2026-05-03 20:47 | 42.69473 | 8.57258 | 6353 ft | 118 kts | 306° |
| 2026-05-03 20:47 | 42.69938 | 8.56327 | 6587 ft | 119 kts | 306° |
| 2026-05-03 20:47 | 42.70402 | 8.55397 | 6823 ft | 119 kts | 306° |
| 2026-05-03 20:47 | 42.70864 | 8.54472 | 7054 ft | 120 kts | 306° |
| 2026-05-03 20:48 | 42.71333 | 8.53533 | 7289 ft | 120 kts | 306° |
| 2026-05-03 20:48 | 42.71804 | 8.52589 | 7517 ft | 120 kts | 306° |
| 2026-05-03 20:48 | 42.72279 | 8.51649 | 7754 ft | 121 kts | 307° |
| 2026-05-03 20:48 | 42.72757 | 8.50704 | 7985 ft | 122 kts | 307° |
| 2026-05-03 20:49 | 42.73274 | 8.49687 | 8005 ft | 138 kts | 307° |
| 2026-05-03 20:49 | 42.73834 | 8.48583 | 8008 ft | 144 kts | 306° |
| 2026-05-03 20:49 | 42.74411 | 8.47440 | 8009 ft | 148 kts | 306° |
| 2026-05-03 20:49 | 42.74996 | 8.46277 | 8010 ft | 150 kts | 306° |
| 2026-05-03 20:50 | 42.75590 | 8.45096 | 8010 ft | 152 kts | 306° |
| 2026-05-03 20:50 | 42.76190 | 8.43906 | 8010 ft | 153 kts | 306° |
| 2026-05-03 20:50 | 42.76792 | 8.42710 | 8008 ft | 154 kts | 306° |
| 2026-05-03 20:50 | 42.77398 | 8.41509 | 8009 ft | 154 kts | 306° |
| 2026-05-03 20:51 | 42.77997 | 8.40320 | 8009 ft | 154 kts | 306° |
| 2026-05-03 20:51 | 42.78527 | 8.39051 | 8004 ft | 155 kts | 289° |
| 2026-05-03 20:51 | 42.78612 | 8.37593 | 7976 ft | 158 kts | 261° |
| 2026-05-03 20:51 | 42.78157 | 8.36215 | 7893 ft | 161 kts | 230° |
| 2026-05-03 20:52 | 42.77284 | 8.35317 | 7894 ft | 157 kts | 201° |
| 2026-05-03 20:52 | 42.76257 | 8.34845 | 7897 ft | 155 kts | 195° |
| 2026-05-03 20:52 | 42.75229 | 8.34412 | 7897 ft | 154 kts | 195° |
| 2026-05-03 20:52 | 42.74207 | 8.33981 | 7897 ft | 154 kts | 195° |
| 2026-05-03 20:53 | 42.73188 | 8.33546 | 7897 ft | 153 kts | 196° |
| 2026-05-03 20:53 | 42.72170 | 8.33111 | 7897 ft | 153 kts | 196° |
| 2026-05-03 20:53 | 42.71154 | 8.32676 | 7897 ft | 153 kts | 196° |
| 2026-05-03 20:53 | 42.70140 | 8.32242 | 7897 ft | 153 kts | 196° |
| 2026-05-03 20:54 | 42.69125 | 8.31810 | 7897 ft | 153 kts | 195° |
| 2026-05-03 20:54 | 42.67089 | 8.30940 | 7895 ft | 154 kts | 195° |
| 2026-05-03 20:54 | 42.66070 | 8.30503 | 7895 ft | 154 kts | 195° |
| 2026-05-03 20:55 | 42.65049 | 8.30066 | 7895 ft | 154 kts | 195° |
| 2026-05-03 20:55 | 42.64026 | 8.29628 | 7894 ft | 154 kts | 195° |
| 2026-05-03 20:55 | 42.63004 | 8.29192 | 7894 ft | 154 kts | 195° |
| 2026-05-03 20:55 | 42.61981 | 8.28755 | 7894 ft | 154 kts | 195° |
| 2026-05-03 20:56 | 42.60961 | 8.28320 | 7895 ft | 154 kts | 195° |
| 2026-05-03 20:56 | 42.59953 | 8.27890 | 7894 ft | 154 kts | 195° |
| 2026-05-03 20:56 | 42.58932 | 8.27455 | 7894 ft | 154 kts | 195° |
| 2026-05-03 20:56 | 42.57909 | 8.27019 | 7894 ft | 154 kts | 195° |
| 2026-05-03 20:57 | 42.56888 | 8.26583 | 7894 ft | 154 kts | 195° |
| 2026-05-03 20:57 | 42.55867 | 8.26148 | 7894 ft | 154 kts | 195° |
| 2026-05-03 20:57 | 42.54844 | 8.25713 | 7894 ft | 154 kts | 195° |
| 2026-05-03 20:57 | 42.53822 | 8.25277 | 7894 ft | 154 kts | 195° |
| 2026-05-03 20:58 | 42.52797 | 8.24841 | 7894 ft | 154 kts | 195° |
| 2026-05-03 20:58 | 42.51775 | 8.24407 | 7894 ft | 154 kts | 195° |
| 2026-05-03 20:58 | 42.50753 | 8.23972 | 7894 ft | 154 kts | 195° |
| 2026-05-03 20:58 | 42.49732 | 8.23538 | 7894 ft | 154 kts | 195° |
| 2026-05-03 20:59 | 42.48708 | 8.23103 | 7894 ft | 154 kts | 195° |
| 2026-05-03 20:59 | 42.47692 | 8.22767 | 7887 ft | 146 kts | 181° |
| 2026-05-03 20:59 | 42.46729 | 8.22981 | 7886 ft | 137 kts | 155° |
| 2026-05-03 20:59 | 42.45895 | 8.23525 | 7887 ft | 133 kts | 151° |
| 2026-05-03 21:00 | 42.45075 | 8.24082 | 7885 ft | 130 kts | 151° |
| 2026-05-03 21:00 | 42.44804 | 8.24268 | 7884 ft | 130 kts | 151° |
| 2026-05-03 21:00 | 42.43480 | 8.25170 | 7881 ft | 127 kts | 151° |
| 2026-05-03 21:00 | 42.42695 | 8.25703 | 7880 ft | 126 kts | 151° |
| 2026-05-03 21:01 | 42.41917 | 8.26232 | 7880 ft | 125 kts | 151° |
| 2026-05-03 21:01 | 42.41144 | 8.26756 | 7882 ft | 123 kts | 151° |
| 2026-05-03 21:01 | 42.40379 | 8.27275 | 7882 ft | 123 kts | 151° |
| 2026-05-03 21:01 | 42.39617 | 8.27791 | 7881 ft | 122 kts | 151° |
| 2026-05-03 21:02 | 42.38867 | 8.28300 | 7880 ft | 122 kts | 151° |
| 2026-05-03 21:02 | 42.38114 | 8.28810 | 7890 ft | 120 kts | 151° |
| 2026-05-03 21:02 | 42.37371 | 8.29314 | 7932 ft | 116 kts | 153° |
| 2026-05-03 21:02 | 42.36675 | 8.29785 | 8048 ft | 109 kts | 154° |
| 2026-05-03 21:03 | 42.36004 | 8.30241 | 8095 ft | 111 kts | 154° |
| 2026-05-03 21:03 | 42.35300 | 8.30717 | 8103 ft | 115 kts | 154° |
| 2026-05-03 21:03 | 42.34570 | 8.31209 | 8107 ft | 119 kts | 154° |
| 2026-05-03 21:03 | 42.33823 | 8.31714 | 8107 ft | 122 kts | 154° |
| 2026-05-03 21:04 | 42.33059 | 8.32229 | 8114 ft | 124 kts | 154° |
| 2026-05-03 21:04 | 42.32546 | 8.32577 | 8108 ft | 125 kts | 154° |
| 2026-05-03 21:04 | 42.31766 | 8.33103 | 8108 ft | 126 kts | 154° |
| 2026-05-03 21:04 | 42.30982 | 8.33634 | 8110 ft | 126 kts | 154° |
| 2026-05-03 21:05 | 42.30197 | 8.34164 | 8107 ft | 127 kts | 154° |
| 2026-05-03 21:05 | 42.29407 | 8.34698 | 8106 ft | 127 kts | 154° |
| 2026-05-03 21:05 | 42.28615 | 8.35233 | 8106 ft | 127 kts | 154° |
| 2026-05-03 21:05 | 42.27819 | 8.35770 | 8108 ft | 127 kts | 154° |
| 2026-05-03 21:06 | 42.27025 | 8.36306 | 8108 ft | 128 kts | 154° |
| 2026-05-03 21:06 | 42.26229 | 8.36843 | 8110 ft | 128 kts | 154° |
| 2026-05-03 21:06 | 42.25430 | 8.37381 | 8111 ft | 128 kts | 154° |
| 2026-05-03 21:06 | 42.24642 | 8.37913 | 8111 ft | 128 kts | 154° |
| 2026-05-03 21:07 | 42.23842 | 8.38453 | 8112 ft | 128 kts | 154° |
| 2026-05-03 21:07 | 42.23043 | 8.38991 | 8112 ft | 128 kts | 154° |
| 2026-05-03 21:07 | 42.22243 | 8.39530 | 8112 ft | 128 kts | 154° |
| 2026-05-03 21:07 | 42.21444 | 8.40067 | 8109 ft | 128 kts | 154° |
| 2026-05-03 21:08 | 42.20644 | 8.40605 | 8111 ft | 128 kts | 154° |
| 2026-05-03 21:08 | 42.19842 | 8.41144 | 8108 ft | 129 kts | 154° |
| 2026-05-03 21:08 | 42.19041 | 8.41683 | 8106 ft | 129 kts | 154° |
| 2026-05-03 21:08 | 42.18240 | 8.42223 | 8108 ft | 129 kts | 154° |
| 2026-05-03 21:09 | 42.17441 | 8.42761 | 8104 ft | 129 kts | 154° |
| 2026-05-03 21:09 | 42.16651 | 8.43292 | 8107 ft | 128 kts | 154° |
| 2026-05-03 21:09 | 42.15844 | 8.43835 | 8108 ft | 128 kts | 154° |
| 2026-05-03 21:09 | 42.15057 | 8.44363 | 8107 ft | 128 kts | 154° |
| 2026-05-03 21:10 | 42.14259 | 8.44899 | 8105 ft | 128 kts | 154° |
| 2026-05-03 21:10 | 42.13460 | 8.45436 | 8098 ft | 129 kts | 154° |
| 2026-05-03 21:10 | 42.12628 | 8.45994 | 7952 ft | 138 kts | 154° |
| 2026-05-03 21:10 | 42.11739 | 8.46589 | 7760 ft | 147 kts | 154° |
| 2026-05-03 21:11 | 42.10809 | 8.47214 | 7532 ft | 153 kts | 154° |
| 2026-05-03 21:11 | 42.09827 | 8.47874 | 7241 ft | 159 kts | 154° |
| 2026-05-03 21:11 | 42.08836 | 8.48540 | 7027 ft | 158 kts | 154° |
| 2026-05-03 21:11 | 42.07850 | 8.49200 | 6815 ft | 158 kts | 154° |
| 2026-05-03 21:12 | 42.06870 | 8.49857 | 6606 ft | 157 kts | 154° |
| 2026-05-03 21:12 | 42.05892 | 8.50512 | 6398 ft | 156 kts | 154° |
| 2026-05-03 21:12 | 42.04919 | 8.51164 | 6188 ft | 156 kts | 154° |
| 2026-05-03 21:12 | 42.03956 | 8.51809 | 5982 ft | 152 kts | 154° |
| 2026-05-03 21:13 | 42.03020 | 8.52435 | 5783 ft | 148 kts | 154° |
| 2026-05-03 21:13 | 42.02117 | 8.53040 | 5591 ft | 146 kts | 154° |
| 2026-05-03 21:13 | 42.01215 | 8.53643 | 5399 ft | 144 kts | 154° |
| 2026-05-03 21:13 | 42.00328 | 8.54236 | 5208 ft | 142 kts | 154° |
| 2026-05-03 21:14 | 41.99447 | 8.54825 | 5021 ft | 141 kts | 153° |
| 2026-05-03 21:14 | 41.98574 | 8.55419 | 4838 ft | 140 kts | 153° |
| 2026-05-03 21:14 | 41.97706 | 8.56012 | 4638 ft | 140 kts | 153° |
| 2026-05-03 21:14 | 41.96840 | 8.56603 | 4460 ft | 139 kts | 153° |
| 2026-05-03 21:15 | 41.95976 | 8.57191 | 4277 ft | 139 kts | 153° |
| 2026-05-03 21:15 | 41.95127 | 8.57768 | 4094 ft | 138 kts | 153° |
| 2026-05-03 21:15 | 41.94337 | 8.58303 | 3919 ft | 116 kts | 153° |
| 2026-05-03 21:15 | 41.93672 | 8.58753 | 3770 ft | 98 kts | 153° |
| 2026-05-03 21:16 | 41.93108 | 8.59135 | 3654 ft | 88 kts | 153° |
| 2026-05-03 21:16 | 41.92529 | 8.59515 | 3546 ft | 96 kts | 155° |
| 2026-05-03 21:16 | 41.91890 | 8.59896 | 3414 ft | 104 kts | 156° |
| 2026-05-03 21:16 | 41.91204 | 8.60282 | 3315 ft | 107 kts | 165° |
| 2026-05-03 21:17 | 41.90459 | 8.60242 | 3210 ft | 110 kts | 196° |
| 2026-05-03 21:17 | 41.89980 | 8.60007 | 3128 ft | 112 kts | 208° |
| 2026-05-03 21:17 | 41.89140 | 8.59139 | 3083 ft | 116 kts | 219° |
| 2026-05-03 21:17 | 41.88504 | 8.58429 | 3086 ft | 121 kts | 219° |
| 2026-05-03 21:18 | 41.87838 | 8.57740 | 3080 ft | 124 kts | 215° |
| 2026-05-03 21:18 | 41.87131 | 8.57053 | 3081 ft | 127 kts | 215° |
| 2026-05-03 21:18 | 41.86399 | 8.56385 | 3082 ft | 128 kts | 211° |
| 2026-05-03 21:18 | 41.85634 | 8.55767 | 3062 ft | 131 kts | 210° |
| 2026-05-03 21:19 | 41.84805 | 8.55181 | 3006 ft | 135 kts | 204° |
| 2026-05-03 21:19 | 41.83940 | 8.54709 | 3006 ft | 133 kts | 199° |
| 2026-05-03 21:19 | 41.83065 | 8.54312 | 3006 ft | 132 kts | 197° |
| 2026-05-03 21:19 | 41.82183 | 8.53970 | 3006 ft | 132 kts | 194° |
| 2026-05-03 21:20 | 41.81299 | 8.53658 | 3007 ft | 131 kts | 193° |
| 2026-05-03 21:20 | 41.80405 | 8.53429 | 3006 ft | 131 kts | 189° |
| 2026-05-03 21:20 | 41.79504 | 8.53242 | 3003 ft | 131 kts | 187° |
| 2026-05-03 21:20 | 41.78604 | 8.53078 | 3005 ft | 130 kts | 187° |
| 2026-05-03 21:21 | 41.77702 | 8.52940 | 2996 ft | 131 kts | 181° |
| 2026-05-03 21:21 | 41.76799 | 8.52931 | 3004 ft | 130 kts | 179° |
| 2026-05-03 21:21 | 41.75896 | 8.52986 | 3001 ft | 130 kts | 174° |
| 2026-05-03 21:21 | 41.75005 | 8.53097 | 3001 ft | 131 kts | 174° |
| 2026-05-03 21:22 | 41.74102 | 8.53265 | 2993 ft | 131 kts | 169° |
| 2026-05-03 21:22 | 41.73206 | 8.53484 | 2994 ft | 131 kts | 168° |
| 2026-05-03 21:22 | 41.72322 | 8.53774 | 2994 ft | 131 kts | 163° |
| 2026-05-03 21:22 | 41.71447 | 8.54119 | 2994 ft | 131 kts | 163° |
| 2026-05-03 21:23 | 41.70582 | 8.54498 | 2996 ft | 131 kts | 158° |
| 2026-05-03 21:23 | 41.69758 | 8.55006 | 3000 ft | 131 kts | 153° |
| 2026-05-03 21:23 | 41.68965 | 8.55595 | 3000 ft | 130 kts | 148° |
| 2026-05-03 21:23 | 41.68339 | 8.56454 | 2998 ft | 130 kts | 121° |
| 2026-05-03 21:24 | 41.67907 | 8.57502 | 2990 ft | 131 kts | 116° |
| 2026-05-03 21:24 | 41.67667 | 8.58670 | 2995 ft | 131 kts | 95° |
| 2026-05-03 21:24 | 41.67852 | 8.59854 | 2999 ft | 131 kts | 70° |
| 2026-05-03 21:24 | 41.68249 | 8.60951 | 2998 ft | 132 kts | 56° |
| 2026-05-03 21:25 | 41.68786 | 8.61944 | 2999 ft | 132 kts | 54° |
| 2026-05-03 21:25 | 41.69332 | 8.62929 | 3001 ft | 132 kts | 54° |
| 2026-05-03 21:25 | 41.69880 | 8.63916 | 3001 ft | 132 kts | 54° |
| 2026-05-03 21:25 | 41.70429 | 8.64902 | 3001 ft | 132 kts | 54° |
| 2026-05-03 21:26 | 41.71045 | 8.65815 | 3000 ft | 132 kts | 46° |
| 2026-05-03 21:26 | 41.71695 | 8.66683 | 3002 ft | 132 kts | 46° |
| 2026-05-03 21:26 | 41.72350 | 8.67551 | 3000 ft | 133 kts | 43° |
| 2026-05-03 21:26 | 41.73138 | 8.68191 | 3001 ft | 133 kts | 28° |
| 2026-05-03 21:27 | 41.73962 | 8.68748 | 2995 ft | 133 kts | 27° |
| 2026-05-03 21:27 | 41.74793 | 8.69290 | 2997 ft | 133 kts | 26° |
| 2026-05-03 21:27 | 41.75633 | 8.69817 | 2996 ft | 133 kts | 25° |
| 2026-05-03 21:27 | 41.76472 | 8.70337 | 3007 ft | 130 kts | 25° |
| 2026-05-03 21:28 | 41.77256 | 8.70825 | 2988 ft | 116 kts | 25° |
| 2026-05-03 21:28 | 41.77973 | 8.71270 | 2875 ft | 113 kts | 26° |
| 2026-05-03 21:28 | 41.78679 | 8.71711 | 2725 ft | 114 kts | 26° |
| 2026-05-03 21:28 | 41.79397 | 8.72155 | 2574 ft | 113 kts | 26° |
| 2026-05-03 21:29 | 41.80114 | 8.72601 | 2423 ft | 113 kts | 26° |
| 2026-05-03 21:29 | 41.80827 | 8.73045 | 2272 ft | 113 kts | 26° |
| 2026-05-03 21:29 | 41.81535 | 8.73487 | 2122 ft | 112 kts | 26° |
| 2026-05-03 21:29 | 41.82240 | 8.73923 | 1976 ft | 111 kts | 25° |
| 2026-05-03 21:30 | 41.82943 | 8.74361 | 1824 ft | 111 kts | 25° |
| 2026-05-03 21:30 | 41.83641 | 8.74796 | 1685 ft | 110 kts | 25° |
| 2026-05-03 21:30 | 41.84335 | 8.75228 | 1531 ft | 110 kts | 25° |
| 2026-05-03 21:30 | 41.85032 | 8.75662 | 1387 ft | 110 kts | 25° |
| 2026-05-03 21:31 | 41.85722 | 8.76093 | 1240 ft | 108 kts | 25° |
| 2026-05-03 21:31 | 41.86403 | 8.76516 | 1097 ft | 108 kts | 24° |
| 2026-05-03 21:31 | 41.87077 | 8.76930 | 955 ft | 108 kts | 25° |
| 2026-05-03 21:31 | 41.87761 | 8.77354 | 810 ft | 109 kts | 24° |
| 2026-05-03 21:32 | 41.88442 | 8.77768 | 678 ft | 106 kts | 23° |
| 2026-05-03 21:32 | 41.89137 | 8.78152 | 500 ft | 108 kts | 22° |
| 2026-05-03 21:32 | 41.89795 | 8.78608 | 386 ft | 106 kts | 26° |
| 2026-05-03 21:32 | 41.90458 | 8.79032 | 246 ft | 106 kts | 25° |
| 2026-05-03 21:33 | 41.91125 | 8.79444 | 93 ft | 105 kts | 24° |
| 2026-05-03 21:33 | 41.91749 | 8.79843 | 16 ft | 84 kts | 26° |
| 2026-05-03 21:33 | 41.92100 | 8.80063 | 18 ft | 32 kts | 25° |
| 2026-05-03 21:33 | 41.92245 | 8.80135 | 17 ft | 12 kts | 342° |
| 2026-05-03 21:34 | 41.92280 | 8.80031 | 16 ft | 16 kts | 276° |
| 2026-05-03 21:34 | 41.92292 | 8.79873 | 16 ft | 18 kts | 276° |
| 2026-05-03 21:34 | 41.92296 | 8.79762 | 16 ft | 7 kts | 252° |
| 2026-05-03 21:34 | 41.92240 | 8.79754 | 16 ft | 11 kts | 174° |
| 2026-05-03 21:35 | 41.92168 | 8.79732 | 16 ft | 11 kts | 208° |
| 2026-05-03 21:35 | 41.92148 | 8.79689 | 16 ft | 4 kts | 285° |
| 2026-05-03 21:35 | 41.92141 | 8.79677 | 16 ft | 1 kts | 93° |
| 2026-05-03 21:35 | 41.92165 | 8.79671 | 16 ft | 3 kts | 206° |
| 2026-05-03 21:36 | 41.92152 | 8.79676 | 16 ft | 0 kts | 164° |